createdAt,value
2022-11-09T00:01:43.080Z,0.15
2022-11-09T00:04:12.605Z,0.20
2022-11-09T00:06:41.526Z,0.63
2022-11-09T00:09:11.803Z,0.33
2022-11-09T00:11:40.518Z,0.30
2022-11-09T00:14:15.936Z,0.15
2022-11-09T00:16:45.331Z,0.25
2022-11-09T00:19:14.353Z,0.20
2022-11-09T00:21:43.090Z,0.30
2022-11-09T00:24:14.786Z,0.20
2022-11-09T00:26:43.653Z,0.50
2022-11-09T00:29:12.609Z,0.35
2022-11-09T00:31:43.374Z,0.40
2022-11-09T00:34:12.087Z,0.63
2022-11-09T00:36:43.865Z,0.20
2022-11-09T00:39:13.895Z,0.20
2022-11-09T00:41:42.584Z,0.28
2022-11-09T00:44:11.715Z,0.40
2022-11-09T00:46:40.743Z,0.30
2022-11-09T00:49:09.505Z,0.32
2022-11-09T00:51:38.212Z,0.40
2022-11-09T00:54:08.312Z,0.30
2022-11-09T00:56:38.941Z,0.40
2022-11-09T00:59:08.067Z,0.50
2022-11-09T01:01:36.785Z,0.30
2022-11-09T01:04:07.025Z,0.40
2022-11-09T01:06:37.019Z,0.40
2022-11-09T01:09:05.908Z,0.50
2022-11-09T01:11:34.595Z,0.40
2022-11-09T01:14:04.744Z,0.38
2022-11-09T01:16:33.732Z,0.25
2022-11-09T01:19:02.933Z,0.30
2022-11-09T01:21:31.954Z,0.40
2022-11-09T01:24:02.218Z,0.50
2022-11-09T01:26:32.669Z,0.30
2022-11-09T01:29:01.369Z,0.40
2022-11-09T01:31:31.547Z,0.55
2022-11-09T01:34:02.316Z,0.40
2022-11-09T01:36:31.213Z,0.40
2022-11-09T01:39:02.423Z,0.47
2022-11-09T01:41:31.417Z,0.60
2022-11-09T01:44:13.011Z,0.40
2022-11-09T01:46:51.964Z,0.50
2022-11-09T01:49:41.874Z,0.20
2022-11-09T01:52:17.990Z,0.30
2022-11-09T01:54:52.656Z,0.40
2022-11-09T01:57:26.149Z,0.30
2022-11-09T02:00:02.031Z,0.40
2022-11-09T02:02:34.907Z,0.20
2022-11-09T02:05:11.925Z,0.32
2022-11-09T02:07:42.458Z,0.50
2022-11-09T02:10:20.875Z,0.40
2022-11-09T02:12:51.530Z,0.40
2022-11-09T02:15:20.749Z,0.57
2022-11-09T02:17:55.499Z,0.60
2022-11-09T02:20:26.647Z,0.38
2022-11-09T02:22:55.825Z,0.88
2022-11-09T02:25:24.634Z,1.00
2022-11-09T02:27:53.749Z,0.73
2022-11-09T02:30:24.338Z,0.93
2022-11-09T02:32:57.459Z,1.00
2022-11-09T02:35:27.701Z,1.38
2022-11-09T02:37:56.912Z,1.55
2022-11-09T02:40:34.039Z,1.20
2022-11-09T02:43:03.480Z,1.75
2022-11-09T02:45:34.095Z,1.55
2022-11-09T02:48:03.228Z,1.60
2022-11-09T02:50:33.481Z,1.73
2022-11-09T02:53:02.080Z,1.87
2022-11-09T02:55:31.203Z,2.30
2022-11-09T02:58:00.719Z,1.33
2022-11-09T03:00:29.685Z,1.40
2022-11-09T03:02:58.834Z,1.40
2022-11-09T03:05:28.078Z,3.20
2022-11-09T03:08:02.473Z,1.75
2022-11-09T03:10:34.139Z,1.98
2022-11-09T03:13:03.909Z,17.60
2022-11-09T03:15:32.707Z,3.42
2022-11-09T03:18:01.708Z,12.00
2022-11-09T03:20:30.782Z,4.00
2022-11-09T03:23:02.047Z,2.40
2022-11-09T03:25:32.959Z,2.75
2022-11-09T03:28:05.341Z,2.45
2022-11-09T03:30:34.625Z,1.83
2022-11-09T03:33:10.071Z,2.42
2022-11-09T03:35:40.027Z,2.45
2022-11-09T03:38:11.119Z,1.92
2022-11-09T03:40:40.750Z,1.70
2022-11-09T03:43:10.167Z,4.23
2022-11-09T03:45:40.732Z,10.40
2022-11-09T03:48:11.286Z,9.23
2022-11-09T03:50:42.641Z,2.22
2022-11-09T03:53:14.427Z,3.33
2022-11-09T03:55:43.341Z,1.23
2022-11-09T03:58:13.770Z,0.95
2022-11-09T04:00:43.548Z,1.00
2022-11-09T04:03:16.175Z,1.10
2022-11-09T04:05:45.357Z,1.02
2022-11-09T04:08:15.518Z,0.90
2022-11-09T04:10:44.242Z,2.08
2022-11-09T04:13:13.063Z,1.30
2022-11-09T04:15:42.175Z,3.30
2022-11-09T04:18:16.321Z,12.45
2022-11-09T04:20:48.690Z,20.83
2022-11-09T04:23:20.893Z,2.10
2022-11-09T04:25:50.488Z,2.00
2022-11-09T04:28:22.653Z,1.50
2022-11-09T04:30:52.049Z,1.30
2022-11-09T04:33:21.171Z,1.53
2022-11-09T04:35:50.664Z,1.48
2022-11-09T04:38:22.162Z,2.10
2022-11-09T04:40:51.867Z,3.42
2022-11-09T04:43:23.019Z,3.38
2022-11-09T04:45:53.300Z,4.20
2022-11-09T04:48:24.074Z,4.18
2022-11-09T04:51:00.559Z,5.88
2022-11-09T04:53:39.485Z,5.65
2022-11-09T04:56:18.824Z,4.97
2022-11-09T04:58:47.885Z,4.17
2022-11-09T05:01:29.797Z,4.80
2022-11-09T05:03:59.355Z,3.63
2022-11-09T05:06:51.199Z,3.50
2022-11-09T05:09:28.540Z,3.22
2022-11-09T05:12:02.910Z,2.60
2022-11-09T05:14:32.913Z,2.15
2022-11-09T05:17:02.468Z,2.90
2022-11-09T05:19:31.765Z,2.08
2022-11-09T05:22:23.057Z,1.73
2022-11-09T05:24:53.816Z,1.97
2022-11-09T05:27:29.292Z,2.10
2022-11-09T05:30:01.875Z,1.83
2022-11-09T05:32:35.001Z,1.40
2022-11-09T05:35:08.285Z,1.65
2022-11-09T05:37:42.029Z,1.37
2022-11-09T05:40:14.986Z,1.98
2022-11-09T05:42:44.915Z,2.13
2022-11-09T05:48:08.012Z,2.40
2022-11-09T05:50:37.107Z,2.10
2022-11-09T05:53:33.502Z,1.80
2022-11-09T05:56:11.277Z,1.77
2022-11-09T05:58:42.420Z,1.30
2022-11-09T06:01:18.854Z,1.73
2022-11-09T06:03:53.796Z,1.30
2022-11-09T06:06:25.890Z,1.23
2022-11-09T06:08:56.344Z,1.20
2022-11-09T06:11:26.710Z,1.52
2022-11-09T06:13:59.911Z,1.25
2022-11-09T06:16:28.914Z,0.80
2022-11-09T06:19:00.020Z,1.20
2022-11-09T06:21:31.427Z,1.17
2022-11-09T06:24:07.855Z,1.20
2022-11-09T06:26:43.730Z,1.30
2022-11-09T06:29:12.552Z,0.93
2022-11-09T06:31:41.880Z,0.90
2022-11-09T06:34:11.587Z,1.50
2022-11-09T06:36:42.814Z,1.92
2022-11-09T06:39:14.021Z,1.65
2022-11-09T06:41:47.618Z,1.00
2022-11-09T06:44:21.962Z,1.25
2022-11-09T06:46:51.111Z,1.00
2022-11-09T06:49:20.298Z,1.20
2022-11-09T06:51:52.797Z,1.13
2022-11-09T06:54:24.375Z,1.30
2022-11-09T06:57:15.718Z,1.17
2022-11-09T06:59:55.491Z,1.00
2022-11-09T07:02:30.850Z,0.82
2022-11-09T07:05:13.383Z,1.20
2022-11-09T07:07:45.323Z,0.90
2022-11-09T07:10:17.084Z,1.40
2022-11-09T07:12:48.507Z,1.10
2022-11-09T07:15:22.770Z,0.70
2022-11-09T07:17:54.024Z,0.93
2022-11-09T07:20:23.263Z,0.70
2022-11-09T07:22:54.829Z,0.80
2022-11-09T07:25:29.589Z,1.02
2022-11-09T07:28:07.715Z,1.05
2022-11-09T07:30:37.862Z,0.95
2022-11-09T07:33:14.970Z,0.90
2022-11-09T07:35:44.299Z,1.30
2022-11-09T07:38:16.918Z,0.85
2022-11-09T07:40:46.636Z,0.98
2022-11-09T07:43:18.779Z,1.20
2022-11-09T07:45:54.050Z,0.87
2022-11-09T07:48:30.873Z,1.58
2022-11-09T07:51:05.932Z,2.13
2022-11-09T07:53:37.942Z,2.05
2022-11-09T07:56:10.868Z,2.10
2022-11-09T07:58:44.391Z,2.63
2022-11-09T08:01:15.405Z,2.47
2022-11-09T08:03:57.048Z,2.63
2022-11-09T08:06:34.538Z,2.05
2022-11-09T08:09:09.140Z,2.25
2022-11-09T08:11:39.214Z,1.77
2022-11-09T08:14:09.639Z,1.70
2022-11-09T08:16:45.235Z,1.88
2022-11-09T08:19:15.891Z,1.20
2022-11-09T08:21:50.671Z,1.05
2022-11-09T08:24:19.763Z,0.70
2022-11-09T08:26:50.477Z,0.50
2022-11-09T08:29:20.660Z,0.50
2022-11-09T08:31:56.315Z,0.77
2022-11-09T08:34:29.749Z,0.93
2022-11-09T08:37:02.363Z,0.93
2022-11-09T08:39:31.267Z,0.95
2022-11-09T08:42:03.759Z,1.17
2022-11-09T08:44:35.100Z,0.80
2022-11-09T08:47:09.068Z,0.80
2022-11-09T08:49:49.298Z,1.00
2022-11-09T08:52:19.595Z,1.27
2022-11-09T08:54:53.017Z,1.45
2022-11-09T08:57:24.850Z,1.08
2022-11-09T08:59:57.987Z,1.20
2022-11-09T09:02:26.819Z,1.10
2022-11-09T09:04:56.071Z,1.30
2022-11-09T09:07:29.488Z,1.48
2022-11-09T09:09:58.863Z,1.60
2022-11-09T09:12:31.028Z,1.75
2022-11-09T09:15:07.492Z,1.80
2022-11-09T09:17:41.900Z,1.60
2022-11-09T09:20:14.231Z,2.03
2022-11-09T09:22:43.669Z,2.00
2022-11-09T09:25:12.883Z,1.88
2022-11-09T09:27:47.893Z,2.50
2022-11-09T09:30:22.313Z,3.05
2022-11-09T09:32:51.641Z,3.30
2022-11-09T09:35:20.578Z,2.75
2022-11-09T09:37:50.008Z,2.55
2022-11-09T09:40:26.817Z,2.93
2022-11-09T09:42:58.566Z,2.83
2022-11-09T09:45:33.936Z,2.85
2022-11-09T09:48:25.175Z,3.20
2022-11-09T09:51:20.099Z,3.08
2022-11-09T09:53:58.004Z,3.50
2022-11-09T09:56:32.642Z,3.80
2022-11-09T09:59:12.186Z,4.45
2022-11-09T10:01:45.092Z,4.40
2022-11-09T10:04:21.311Z,4.50
2022-11-09T10:07:08.643Z,4.23
2022-11-09T10:09:58.630Z,3.47
2022-11-09T10:12:40.032Z,4.32
2022-11-09T10:15:20.488Z,4.05
2022-11-09T10:18:19.847Z,4.47
2022-11-09T10:21:10.287Z,4.07
2022-11-09T10:23:57.676Z,4.15
2022-11-09T10:26:41.365Z,5.13
2022-11-09T10:29:25.128Z,4.72
2022-11-09T10:32:02.704Z,4.95
2022-11-09T10:34:54.717Z,5.03
2022-11-09T10:37:33.741Z,5.50
2022-11-09T10:40:13.589Z,5.40
2022-11-09T10:43:07.965Z,5.28
2022-11-09T10:46:05.736Z,5.00
2022-11-09T10:48:55.883Z,5.27
2022-11-09T10:51:47.538Z,5.85
2022-11-09T10:54:38.212Z,5.45
2022-11-09T10:57:27.650Z,4.70
2022-11-09T11:00:25.596Z,5.00
2022-11-09T11:03:21.957Z,6.20
2022-11-09T11:06:18.545Z,5.70
2022-11-09T11:09:22.693Z,5.07
2022-11-09T11:12:18.104Z,4.88
2022-11-09T11:15:23.927Z,6.18
2022-11-09T11:18:23.604Z,6.23
2022-11-09T11:21:18.915Z,5.95
2022-11-09T11:24:17.675Z,5.95
2022-11-09T11:27:12.540Z,5.07
2022-11-09T11:30:11.073Z,6.35
2022-11-09T11:33:15.390Z,5.57
2022-11-09T11:36:22.613Z,6.00
2022-11-09T11:39:24.778Z,6.15
2022-11-09T11:42:36.558Z,5.80
2022-11-09T11:45:40.659Z,5.25
2022-11-09T11:49:16.439Z,5.70
2022-11-09T11:52:16.826Z,4.45
2022-11-09T11:55:38.705Z,5.28
2022-11-09T11:58:49.552Z,5.45
2022-11-09T12:01:55.517Z,5.68
2022-11-09T12:05:29.601Z,5.17
2022-11-09T12:08:29.009Z,6.40
2022-11-09T12:11:36.787Z,5.85
2022-11-09T12:14:43.917Z,5.97
2022-11-09T12:17:46.040Z,5.97
2022-11-09T12:20:44.695Z,6.30
2022-11-09T12:24:08.405Z,6.18
2022-11-09T12:27:36.900Z,5.97
2022-11-09T12:30:38.913Z,6.45
2022-11-09T12:33:43.490Z,5.47
2022-11-09T12:36:41.764Z,5.93
2022-11-09T12:39:38.046Z,6.82
2022-11-09T12:42:37.575Z,6.45
2022-11-09T12:45:34.252Z,5.65
2022-11-09T12:48:26.899Z,5.80
2022-11-09T12:51:14.375Z,5.83
2022-11-09T12:54:11.432Z,5.80
2022-11-09T12:57:03.960Z,5.40
2022-11-09T12:59:55.282Z,5.18
2022-11-09T13:02:59.641Z,6.25
2022-11-09T13:05:50.029Z,5.60
2022-11-09T13:08:39.862Z,4.75
2022-11-09T13:11:48.218Z,4.68
2022-11-09T13:14:44.117Z,4.70
2022-11-09T13:18:27.761Z,5.40
2022-11-09T13:24:56.044Z,4.90
2022-11-09T13:27:46.708Z,4.07
2022-11-09T13:31:12.707Z,4.18
2022-11-09T13:34:54.845Z,3.67
2022-11-09T13:38:25.420Z,4.10
2022-11-09T13:41:44.375Z,4.20
2022-11-09T13:44:39.433Z,4.85
2022-11-09T13:47:55.938Z,3.47
2022-11-09T13:50:56.582Z,3.78
2022-11-09T13:54:05.942Z,4.17
2022-11-09T13:56:55.273Z,3.95
2022-11-09T13:59:50.363Z,4.90
2022-11-09T14:02:38.199Z,4.65
2022-11-09T14:05:30.284Z,3.83
2022-11-09T14:08:24.909Z,9.80
2022-11-09T14:12:06.275Z,4.63
2022-11-09T14:15:18.437Z,5.30
2022-11-09T14:18:28.549Z,4.32
2022-11-09T14:21:33.142Z,3.60
2022-11-09T14:24:41.050Z,4.00
2022-11-09T14:27:28.010Z,5.68
2022-11-09T14:30:25.659Z,3.63
2022-11-09T14:33:26.611Z,4.22
2022-11-09T14:36:15.261Z,4.63
2022-11-09T14:39:35.522Z,4.37
2022-11-09T14:42:25.577Z,5.50
2022-11-09T14:45:17.606Z,4.07
2022-11-09T14:48:05.474Z,3.95
2022-11-09T14:50:55.409Z,3.80
2022-11-09T14:53:44.797Z,4.23
2022-11-09T14:56:38.737Z,4.15
2022-11-09T14:59:32.351Z,7.25
2022-11-09T15:02:23.713Z,4.57
2022-11-09T15:05:33.218Z,4.85
2022-11-09T15:08:24.132Z,5.70
2022-11-09T15:11:16.199Z,4.00
2022-11-09T15:14:16.559Z,3.60
2022-11-09T15:17:16.457Z,4.45
2022-11-09T15:20:21.396Z,4.13
2022-11-09T15:23:38.934Z,3.70
2022-11-09T15:26:37.634Z,4.28
2022-11-09T15:29:42.104Z,4.20
2022-11-09T15:32:43.274Z,4.65
2022-11-09T15:35:32.166Z,4.22
2022-11-09T15:38:41.993Z,4.07
2022-11-09T15:41:30.676Z,4.50
2022-11-09T15:44:17.992Z,4.82
2022-11-09T15:47:23.368Z,4.65
2022-11-09T15:50:18.928Z,4.80
2022-11-09T15:53:06.530Z,3.50
2022-11-09T15:55:54.276Z,5.03
2022-11-09T15:58:41.676Z,4.15
2022-11-09T16:01:30.204Z,4.43
2022-11-09T16:04:19.094Z,4.88
2022-11-09T16:07:09.426Z,4.90
2022-11-09T16:09:58.661Z,4.72
2022-11-09T16:12:46.571Z,4.50
2022-11-09T16:15:35.920Z,5.47
2022-11-09T16:18:26.093Z,5.50
2022-11-09T16:21:17.816Z,5.27
2022-11-09T16:24:06.160Z,5.85
2022-11-09T16:26:55.706Z,6.20
2022-11-09T16:29:45.265Z,5.63
2022-11-09T16:32:33.354Z,6.75
2022-11-09T16:35:27.256Z,5.97
2022-11-09T16:38:17.031Z,6.55
2022-11-09T16:41:05.904Z,6.25
2022-11-09T16:43:54.829Z,6.43
2022-11-09T16:46:45.796Z,6.13
2022-11-09T16:49:33.312Z,8.73
2022-11-09T16:52:20.892Z,6.05
2022-11-09T16:55:11.118Z,8.20
2022-11-09T16:57:59.993Z,6.32
2022-11-09T17:01:09.591Z,7.07
2022-11-09T17:03:57.456Z,7.03
2022-11-09T17:06:44.892Z,7.35
2022-11-09T17:09:35.183Z,6.75
2022-11-09T17:12:23.833Z,6.78
2022-11-09T17:15:12.368Z,8.20
2022-11-09T17:18:02.722Z,30.80
2022-11-09T17:20:51.710Z,9.63
2022-11-09T17:23:39.802Z,7.78
2022-11-09T17:26:28.998Z,7.40
2022-11-09T17:29:17.939Z,6.60
2022-11-09T17:32:06.575Z,7.30
2022-11-09T17:34:54.054Z,6.80
2022-11-09T17:37:41.749Z,6.88
2022-11-09T17:40:29.552Z,7.35
2022-11-09T17:43:16.928Z,7.10
2022-11-09T17:46:08.788Z,9.13
2022-11-09T17:48:56.380Z,8.70
2022-11-09T17:51:43.544Z,8.95
2022-11-09T17:54:36.464Z,8.50
2022-11-09T17:57:27.349Z,6.10
2022-11-09T18:00:20.073Z,6.17
2022-11-09T18:03:09.182Z,6.78
2022-11-09T18:05:56.932Z,7.80
2022-11-09T18:08:45.085Z,6.60
2022-11-09T18:11:33.962Z,6.45
2022-11-09T18:14:23.131Z,6.30
2022-11-09T18:17:10.972Z,6.00
2022-11-09T18:19:59.927Z,7.95
2022-11-09T18:22:47.311Z,6.07
2022-11-09T18:25:36.018Z,6.93
2022-11-09T18:28:24.157Z,7.73
2022-11-09T18:31:15.229Z,7.35
2022-11-09T18:34:03.143Z,8.45
2022-11-09T18:36:54.058Z,8.65
2022-11-09T18:39:42.259Z,7.75
2022-11-09T18:42:29.621Z,8.13
2022-11-09T18:45:17.376Z,7.00
2022-11-09T18:48:05.677Z,7.35
2022-11-09T18:50:54.169Z,8.38
2022-11-09T18:53:45.706Z,7.75
2022-11-09T18:56:35.577Z,6.57
2022-11-09T18:59:23.519Z,7.35
2022-11-09T19:02:14.632Z,9.10
2022-11-09T19:05:05.281Z,8.73
2022-11-09T19:07:52.918Z,7.90
2022-11-09T19:10:42.155Z,5.93
2022-11-09T19:13:29.914Z,7.60
2022-11-09T19:16:19.198Z,8.23
2022-11-09T19:19:12.830Z,7.00
2022-11-09T19:22:01.253Z,7.85
2022-11-09T19:24:49.260Z,7.60
2022-11-09T19:27:42.891Z,7.63
2022-11-09T19:30:31.168Z,9.27
2022-11-09T19:33:19.136Z,7.95
2022-11-09T19:39:22.117Z,8.27
2022-11-09T19:42:13.083Z,8.32
2022-11-09T19:45:05.534Z,8.50
2022-11-09T19:47:53.637Z,7.72
2022-11-09T19:50:41.140Z,8.18
2022-11-09T19:53:31.424Z,7.17
2022-11-09T19:56:19.725Z,8.23
2022-11-09T19:59:15.794Z,8.45
2022-11-09T20:02:05.491Z,7.88
2022-11-09T20:04:54.734Z,8.05
2022-11-09T20:07:43.655Z,8.60
2022-11-09T20:10:31.507Z,8.23
2022-11-09T20:13:20.488Z,8.73
2022-11-09T20:16:11.808Z,8.65
2022-11-09T20:19:01.268Z,8.25
2022-11-09T20:21:49.869Z,7.50
2022-11-09T20:24:40.238Z,8.65
2022-11-09T20:27:32.049Z,7.43
2022-11-09T20:30:20.987Z,8.23
2022-11-09T20:33:09.859Z,7.72
2022-11-09T20:35:59.164Z,8.83
2022-11-09T20:38:47.164Z,8.60
2022-11-09T20:41:35.944Z,9.25
2022-11-09T20:44:23.369Z,7.95
2022-11-09T20:47:11.007Z,8.63
2022-11-09T20:49:58.949Z,8.60
2022-11-09T20:52:47.931Z,8.82
2022-11-09T20:55:38.513Z,8.27
2022-11-09T20:58:27.418Z,9.13
2022-11-09T21:01:19.121Z,7.55
2022-11-09T21:04:07.600Z,7.20
2022-11-09T21:06:55.539Z,8.68
2022-11-09T21:09:44.300Z,8.80
2022-11-09T21:12:32.568Z,8.32
2022-11-09T21:15:20.001Z,9.95
2022-11-09T21:18:08.843Z,9.90
2022-11-09T21:20:56.233Z,10.85
2022-11-09T21:24:01.074Z,11.07
2022-11-09T21:27:07.368Z,11.43
2022-11-09T21:29:54.416Z,11.88
2022-11-09T21:32:41.996Z,11.97
2022-11-09T21:35:34.107Z,10.10
2022-11-09T21:38:21.800Z,9.68
2022-11-09T21:41:27.876Z,9.02
2022-11-09T21:44:17.138Z,9.50
2022-11-09T21:47:05.085Z,9.70
2022-11-09T21:49:52.441Z,8.65
2022-11-09T21:52:39.829Z,8.93
2022-11-09T21:55:26.996Z,8.75
2022-11-09T21:58:13.840Z,8.43
2022-11-09T22:01:03.982Z,9.17
2022-11-09T22:03:52.477Z,8.70
2022-11-09T22:06:43.326Z,8.77
2022-11-09T22:09:50.614Z,8.20
2022-11-09T22:12:56.543Z,8.20
2022-11-09T22:16:01.585Z,8.60
2022-11-09T22:19:08.121Z,9.25
2022-11-09T22:21:55.760Z,8.85
2022-11-09T22:24:43.916Z,8.45
2022-11-09T22:27:34.004Z,8.25
2022-11-09T22:30:21.569Z,8.87
2022-11-09T22:33:08.814Z,8.98
2022-11-09T22:35:58.778Z,9.63
2022-11-09T22:38:47.326Z,8.90
2022-11-09T22:41:35.020Z,8.73
2022-11-09T22:44:22.227Z,9.10
2022-11-09T22:47:09.204Z,9.75
2022-11-09T22:49:56.584Z,10.25
2022-11-09T22:52:45.235Z,9.48
2022-11-09T22:55:33.087Z,9.75
2022-11-09T22:58:20.319Z,9.63
2022-11-09T23:01:11.690Z,9.35
2022-11-09T23:03:59.264Z,9.85
2022-11-09T23:06:46.401Z,9.10
2022-11-09T23:09:35.209Z,9.15
2022-11-09T23:12:22.652Z,9.63
2022-11-09T23:15:13.558Z,8.68
2022-11-09T23:18:18.292Z,10.18
2022-11-09T23:21:05.510Z,10.05
2022-11-09T23:23:55.057Z,10.57
2022-11-09T23:26:43.704Z,8.50
2022-11-09T23:29:31.056Z,9.95
2022-11-09T23:32:18.391Z,8.65
2022-11-09T23:35:07.163Z,9.02
2022-11-09T23:38:00.495Z,9.38
2022-11-09T23:40:48.023Z,9.43
2022-11-09T23:43:38.234Z,9.07
2022-11-09T23:46:25.708Z,8.85
2022-11-09T23:49:13.228Z,8.88
2022-11-09T23:52:00.612Z,8.82
2022-11-09T23:54:47.987Z,7.70
2022-11-09T23:57:35.560Z,8.20
